sensor_id;sensor_type;location;lat;lon;timestamp;temperature;humidity
75088;HTU21D;63664;44.868;40.600;2023-05-29T00:01:32;18.55;101.67
75088;HTU21D;63664;44.868;40.600;2023-05-29T00:04:00;18.54;101.79
75088;HTU21D;63664;44.868;40.600;2023-05-29T00:06:29;18.55;101.89
75088;HTU21D;63664;44.868;40.600;2023-05-29T00:08:57;18.54;101.97
75088;HTU21D;63664;44.868;40.600;2023-05-29T00:11:23;18.55;102.03
75088;HTU21D;63664;44.868;40.600;2023-05-29T00:13:50;18.56;102.08
75088;HTU21D;63664;44.868;40.600;2023-05-29T00:16:17;18.55;102.15
75088;HTU21D;63664;44.868;40.600;2023-05-29T00:18:45;18.55;102.22
75088;HTU21D;63664;44.868;40.600;2023-05-29T00:21:13;18.55;102.35
75088;HTU21D;63664;44.868;40.600;2023-05-29T00:23:43;18.55;102.33
75088;HTU21D;63664;44.868;40.600;2023-05-29T00:26:09;18.55;102.43
75088;HTU21D;63664;44.868;40.600;2023-05-29T00:28:37;18.56;102.43
75088;HTU21D;63664;44.868;40.600;2023-05-29T00:31:04;18.56;102.47
75088;HTU21D;63664;44.868;40.600;2023-05-29T00:33:30;18.53;102.54
75088;HTU21D;63664;44.868;40.600;2023-05-29T00:35:57;18.52;102.60
75088;HTU21D;63664;44.868;40.600;2023-05-29T00:38:26;18.53;102.64
75088;HTU21D;63664;44.868;40.600;2023-05-29T00:40:52;18.49;102.69
75088;HTU21D;63664;44.868;40.600;2023-05-29T00:43:18;18.50;102.80
75088;HTU21D;63664;44.868;40.600;2023-05-29T00:45:45;18.49;102.83
75088;HTU21D;63664;44.868;40.600;2023-05-29T00:48:13;18.48;102.83
75088;HTU21D;63664;44.868;40.600;2023-05-29T00:55:57;18.43;102.87
75088;HTU21D;63664;44.868;40.600;2023-05-29T00:58:27;18.39;102.91
75088;HTU21D;63664;44.868;40.600;2023-05-29T01:00:54;18.37;102.93
75088;HTU21D;63664;44.868;40.600;2023-05-29T01:03:20;18.33;103.02
75088;HTU21D;63664;44.868;40.600;2023-05-29T01:05:49;18.32;103.06
75088;HTU21D;63664;44.868;40.600;2023-05-29T01:08:18;18.30;103.05
75088;HTU21D;63664;44.868;40.600;2023-05-29T01:10:45;18.27;103.12
75088;HTU21D;63664;44.868;40.600;2023-05-29T01:13:25;18.24;103.15
75088;HTU21D;63664;44.868;40.600;2023-05-29T01:16:03;18.20;103.19
75088;HTU21D;63664;44.868;40.600;2023-05-29T01:24:32;18.15;103.32
75088;HTU21D;63664;44.868;40.600;2023-05-29T01:27:04;18.13;103.34
75088;HTU21D;63664;44.868;40.600;2023-05-29T01:29:36;18.12;103.44
75088;HTU21D;63664;44.868;40.600;2023-05-29T01:32:06;18.11;103.50
75088;HTU21D;63664;44.868;40.600;2023-05-29T01:34:32;18.10;103.55
75088;HTU21D;63664;44.868;40.600;2023-05-29T01:36:59;18.09;103.58
75088;HTU21D;63664;44.868;40.600;2023-05-29T01:39:29;18.09;103.56
75088;HTU21D;63664;44.868;40.600;2023-05-29T01:41:58;18.08;103.64
75088;HTU21D;63664;44.868;40.600;2023-05-29T01:44:27;18.07;103.38
75088;HTU21D;63664;44.868;40.600;2023-05-29T01:46:54;18.04;103.31
75088;HTU21D;63664;44.868;40.600;2023-05-29T01:49:24;18.02;103.49
75088;HTU21D;63664;44.868;40.600;2023-05-29T01:51:51;17.99;103.67
75088;HTU21D;63664;44.868;40.600;2023-05-29T01:54:17;17.98;103.81
75088;HTU21D;63664;44.868;40.600;2023-05-29T01:56:44;17.97;103.92
75088;HTU21D;63664;44.868;40.600;2023-05-29T01:59:12;17.97;104.02
75088;HTU21D;63664;44.868;40.600;2023-05-29T02:01:41;17.98;103.70
75088;HTU21D;63664;44.868;40.600;2023-05-29T02:04:10;17.97;103.58
75088;HTU21D;63664;44.868;40.600;2023-05-29T02:06:39;17.95;103.86
75088;HTU21D;63664;44.868;40.600;2023-05-29T02:09:06;17.97;104.01
75088;HTU21D;63664;44.868;40.600;2023-05-29T02:11:32;17.98;104.05
75088;HTU21D;63664;44.868;40.600;2023-05-29T02:13:58;17.97;104.10
75088;HTU21D;63664;44.868;40.600;2023-05-29T02:16:28;17.96;104.19
75088;HTU21D;63664;44.868;40.600;2023-05-29T02:19:02;17.99;104.28
75088;HTU21D;63664;44.868;40.600;2023-05-29T02:21:30;18.00;104.34
75088;HTU21D;63664;44.868;40.600;2023-05-29T02:23:57;18.03;104.40
75088;HTU21D;63664;44.868;40.600;2023-05-29T02:26:26;18.05;104.44
75088;HTU21D;63664;44.868;40.600;2023-05-29T02:28:55;18.06;104.50
75088;HTU21D;63664;44.868;40.600;2023-05-29T02:31:21;18.09;104.52
75088;HTU21D;63664;44.868;40.600;2023-05-29T02:33:48;18.09;104.65
75088;HTU21D;63664;44.868;40.600;2023-05-29T02:36:16;18.12;104.65
75088;HTU21D;63664;44.868;40.600;2023-05-29T02:38:42;18.17;104.62
75088;HTU21D;63664;44.868;40.600;2023-05-29T02:41:09;18.19;104.70
75088;HTU21D;63664;44.868;40.600;2023-05-29T02:43:35;18.21;104.69
75088;HTU21D;63664;44.868;40.600;2023-05-29T02:46:04;18.24;104.69
75088;HTU21D;63664;44.868;40.600;2023-05-29T02:48:33;18.24;104.79
75088;HTU21D;63664;44.868;40.600;2023-05-29T02:50:59;18.26;104.82
75088;HTU21D;63664;44.868;40.600;2023-05-29T02:53:25;18.26;104.85
75088;HTU21D;63664;44.868;40.600;2023-05-29T02:55:52;18.27;104.86
75088;HTU21D;63664;44.868;40.600;2023-05-29T02:58:18;18.30;104.87
75088;HTU21D;63664;44.868;40.600;2023-05-29T03:00:44;18.32;104.92
75088;HTU21D;63664;44.868;40.600;2023-05-29T03:03:10;18.33;104.95
75088;HTU21D;63664;44.868;40.600;2023-05-29T03:05:38;18.34;105.01
75088;HTU21D;63664;44.868;40.600;2023-05-29T03:08:04;18.38;105.03
75088;HTU21D;63664;44.868;40.600;2023-05-29T03:10:33;18.39;105.14
75088;HTU21D;63664;44.868;40.600;2023-05-29T03:13:02;18.41;105.07
75088;HTU21D;63664;44.868;40.600;2023-05-29T03:15:35;18.44;105.09
75088;HTU21D;63664;44.868;40.600;2023-05-29T03:18:02;18.48;105.10
75088;HTU21D;63664;44.868;40.600;2023-05-29T03:20:30;18.51;105.11
75088;HTU21D;63664;44.868;40.600;2023-05-29T03:23:01;18.54;105.08
75088;HTU21D;63664;44.868;40.600;2023-05-29T03:25:29;18.56;105.10
75088;HTU21D;63664;44.868;40.600;2023-05-29T03:27:55;18.58;105.15
75088;HTU21D;63664;44.868;40.600;2023-05-29T03:30:22;18.61;105.13
75088;HTU21D;63664;44.868;40.600;2023-05-29T03:32:50;18.62;105.21
75088;HTU21D;63664;44.868;40.600;2023-05-29T03:35:22;18.64;105.22
75088;HTU21D;63664;44.868;40.600;2023-05-29T03:37:48;18.65;105.21
75088;HTU21D;63664;44.868;40.600;2023-05-29T03:40:18;18.69;105.25
75088;HTU21D;63664;44.868;40.600;2023-05-29T03:42:46;18.71;105.18
75088;HTU21D;63664;44.868;40.600;2023-05-29T03:45:18;18.73;105.16
75088;HTU21D;63664;44.868;40.600;2023-05-29T03:47:47;18.76;105.18
75088;HTU21D;63664;44.868;40.600;2023-05-29T03:50:14;18.80;105.19
75088;HTU21D;63664;44.868;40.600;2023-05-29T03:52:43;18.82;105.17
75088;HTU21D;63664;44.868;40.600;2023-05-29T03:55:10;18.86;105.26
75088;HTU21D;63664;44.868;40.600;2023-05-29T03:57:41;18.89;105.15
75088;HTU21D;63664;44.868;40.600;2023-05-29T04:00:11;18.93;105.12
75088;HTU21D;63664;44.868;40.600;2023-05-29T04:02:41;18.95;105.06
75088;HTU21D;63664;44.868;40.600;2023-05-29T04:05:09;18.97;105.03
75088;HTU21D;63664;44.868;40.600;2023-05-29T04:07:44;18.97;105.04
75088;HTU21D;63664;44.868;40.600;2023-05-29T04:10:10;18.98;105.05
75088;HTU21D;63664;44.868;40.600;2023-05-29T04:12:42;19.02;105.10
75088;HTU21D;63664;44.868;40.600;2023-05-29T04:15:08;19.06;105.05
75088;HTU21D;63664;44.868;40.600;2023-05-29T04:17:40;19.10;105.13
75088;HTU21D;63664;44.868;40.600;2023-05-29T04:20:10;19.13;105.10
75088;HTU21D;63664;44.868;40.600;2023-05-29T04:22:37;19.15;105.10
75088;HTU21D;63664;44.868;40.600;2023-05-29T04:25:06;19.17;105.13
75088;HTU21D;63664;44.868;40.600;2023-05-29T04:27:35;19.18;105.16
75088;HTU21D;63664;44.868;40.600;2023-05-29T04:30:06;19.22;105.19
75088;HTU21D;63664;44.868;40.600;2023-05-29T04:32:37;19.25;105.10
75088;HTU21D;63664;44.868;40.600;2023-05-29T04:35:09;19.30;105.11
75088;HTU21D;63664;44.868;40.600;2023-05-29T04:37:42;19.32;105.08
75088;HTU21D;63664;44.868;40.600;2023-05-29T04:40:11;19.35;105.06
75088;HTU21D;63664;44.868;40.600;2023-05-29T04:42:38;19.38;105.08
75088;HTU21D;63664;44.868;40.600;2023-05-29T04:45:08;19.40;105.09
75088;HTU21D;63664;44.868;40.600;2023-05-29T04:47:40;19.43;105.07
75088;HTU21D;63664;44.868;40.600;2023-05-29T04:50:17;19.45;105.11
75088;HTU21D;63664;44.868;40.600;2023-05-29T04:52:43;19.48;105.00
75088;HTU21D;63664;44.868;40.600;2023-05-29T04:55:13;19.48;105.11
75088;HTU21D;63664;44.868;40.600;2023-05-29T04:57:44;19.52;105.12
75088;HTU21D;63664;44.868;40.600;2023-05-29T05:00:11;19.53;105.21
75088;HTU21D;63664;44.868;40.600;2023-05-29T05:02:44;19.53;105.24
75088;HTU21D;63664;44.868;40.600;2023-05-29T05:05:12;19.55;105.27
75088;HTU21D;63664;44.868;40.600;2023-05-29T05:07:39;19.55;105.32
75088;HTU21D;63664;44.868;40.600;2023-05-29T05:10:07;19.58;105.36
75088;HTU21D;63664;44.868;40.600;2023-05-29T05:12:33;19.59;105.36
75088;HTU21D;63664;44.868;40.600;2023-05-29T05:15:02;19.63;105.46
75088;HTU21D;63664;44.868;40.600;2023-05-29T05:17:32;19.66;105.47
75088;HTU21D;63664;44.868;40.600;2023-05-29T05:19:59;19.69;105.41
75088;HTU21D;63664;44.868;40.600;2023-05-29T05:22:29;19.73;105.55
75088;HTU21D;63664;44.868;40.600;2023-05-29T05:24:56;19.77;105.45
75088;HTU21D;63664;44.868;40.600;2023-05-29T05:27:25;19.83;105.05
75088;HTU21D;63664;44.868;40.600;2023-05-29T05:29:54;19.87;104.88
75088;HTU21D;63664;44.868;40.600;2023-05-29T05:32:21;19.92;104.92
75088;HTU21D;63664;44.868;40.600;2023-05-29T05:34:55;20.01;104.91
75088;HTU21D;63664;44.868;40.600;2023-05-29T05:37:25;20.06;104.80
75088;HTU21D;63664;44.868;40.600;2023-05-29T05:39:56;20.13;104.81
75088;HTU21D;63664;44.868;40.600;2023-05-29T05:42:30;20.20;104.69
75088;HTU21D;63664;44.868;40.600;2023-05-29T05:45:07;20.26;104.55
75088;HTU21D;63664;44.868;40.600;2023-05-29T05:47:33;20.30;104.40
75088;HTU21D;63664;44.868;40.600;2023-05-29T08:12:04;22.13;99.83
75088;HTU21D;63664;44.868;40.600;2023-05-29T08:14:32;22.18;99.90
75088;HTU21D;63664;44.868;40.600;2023-05-29T08:17:04;22.18;99.90
75088;HTU21D;63664;44.868;40.600;2023-05-29T08:19:30;22.22;99.72
75088;HTU21D;63664;44.868;40.600;2023-05-29T08:21:57;22.21;99.64
75088;HTU21D;63664;44.868;40.600;2023-05-29T08:24:24;22.20;99.76
75088;HTU21D;63664;44.868;40.600;2023-05-29T08:26:52;22.21;99.86
75088;HTU21D;63664;44.868;40.600;2023-05-29T08:29:21;22.20;99.88
75088;HTU21D;63664;44.868;40.600;2023-05-29T08:31:48;22.19;100.10
75088;HTU21D;63664;44.868;40.600;2023-05-29T08:34:14;22.19;100.25
75088;HTU21D;63664;44.868;40.600;2023-05-29T08:36:41;22.11;100.47
75088;HTU21D;63664;44.868;40.600;2023-05-29T08:39:08;22.03;100.82
75088;HTU21D;63664;44.868;40.600;2023-05-29T08:41:57;21.91;101.12
75088;HTU21D;63664;44.868;40.600;2023-05-29T08:44:30;21.79;101.64
75088;HTU21D;63664;44.868;40.600;2023-05-29T08:47:03;21.74;101.85
75088;HTU21D;63664;44.868;40.600;2023-05-29T08:49:32;21.72;102.07
75088;HTU21D;63664;44.868;40.600;2023-05-29T08:52:15;21.66;102.13
75088;HTU21D;63664;44.868;40.600;2023-05-29T08:54:43;21.60;102.36
75088;HTU21D;63664;44.868;40.600;2023-05-29T08:57:13;21.50;102.69
75088;HTU21D;63664;44.868;40.600;2023-05-29T08:59:42;21.45;102.95
75088;HTU21D;63664;44.868;40.600;2023-05-29T09:02:14;21.44;103.16
75088;HTU21D;63664;44.868;40.600;2023-05-29T09:04:43;21.44;103.21
75088;HTU21D;63664;44.868;40.600;2023-05-29T09:07:19;21.44;103.26
75088;HTU21D;63664;44.868;40.600;2023-05-29T09:09:46;21.44;103.44
75088;HTU21D;63664;44.868;40.600;2023-05-29T09:12:19;21.47;103.43
75088;HTU21D;63664;44.868;40.600;2023-05-29T09:14:52;21.44;103.60
75088;HTU21D;63664;44.868;40.600;2023-05-29T09:17:19;21.46;103.63
75088;HTU21D;63664;44.868;40.600;2023-05-29T09:19:45;21.46;103.80
75088;HTU21D;63664;44.868;40.600;2023-05-29T09:22:18;21.48;103.86
75088;HTU21D;63664;44.868;40.600;2023-05-29T09:24:48;21.49;103.83
75088;HTU21D;63664;44.868;40.600;2023-05-29T09:27:17;21.49;103.88
75088;HTU21D;63664;44.868;40.600;2023-05-29T09:29:47;21.50;103.99
75088;HTU21D;63664;44.868;40.600;2023-05-29T09:32:19;21.49;104.01
75088;HTU21D;63664;44.868;40.600;2023-05-29T09:34:48;21.46;104.16
75088;HTU21D;63664;44.868;40.600;2023-05-29T09:37:14;21.43;104.29
75088;HTU21D;63664;44.868;40.600;2023-05-29T09:39:48;21.40;104.40
75088;HTU21D;63664;44.868;40.600;2023-05-29T09:42:18;21.39;104.65
75088;HTU21D;63664;44.868;40.600;2023-05-29T09:44:48;21.39;104.76
75088;HTU21D;63664;44.868;40.600;2023-05-29T09:47:18;21.43;104.77
75088;HTU21D;63664;44.868;40.600;2023-05-29T09:49:49;21.47;104.85
75088;HTU21D;63664;44.868;40.600;2023-05-29T09:52:21;21.52;104.68
75088;HTU21D;63664;44.868;40.600;2023-05-29T09:54:50;21.53;104.80
75088;HTU21D;63664;44.868;40.600;2023-05-29T09:57:20;21.53;104.86
75088;HTU21D;63664;44.868;40.600;2023-05-29T09:59:52;21.58;104.88
75088;HTU21D;63664;44.868;40.600;2023-05-29T10:02:21;21.59;104.87
75088;HTU21D;63664;44.868;40.600;2023-05-29T10:04:48;21.61;104.79
75088;HTU21D;63664;44.868;40.600;2023-05-29T10:07:27;21.59;105.02
75088;HTU21D;63664;44.868;40.600;2023-05-29T10:10:06;21.59;105.11
75088;HTU21D;63664;44.868;40.600;2023-05-29T10:12:38;21.59;105.13
75088;HTU21D;63664;44.868;40.600;2023-05-29T10:15:11;21.59;105.15
75088;HTU21D;63664;44.868;40.600;2023-05-29T10:17:59;21.55;105.26
75088;HTU21D;63664;44.868;40.600;2023-05-29T10:20:28;21.54;105.27
75088;HTU21D;63664;44.868;40.600;2023-05-29T10:22:56;21.52;105.40
75088;HTU21D;63664;44.868;40.600;2023-05-29T10:25:29;21.57;105.50
75088;HTU21D;63664;44.868;40.600;2023-05-29T10:27:56;21.64;105.09
75088;HTU21D;63664;44.868;40.600;2023-05-29T10:30:39;21.68;104.89
75088;HTU21D;63664;44.868;40.600;2023-05-29T10:33:59;21.73;104.81
75088;HTU21D;63664;44.868;40.600;2023-05-29T10:36:10;21.76;104.76
75088;HTU21D;63664;44.868;40.600;2023-05-29T10:38:43;21.80;104.71
75088;HTU21D;63664;44.868;40.600;2023-05-29T10:43:58;21.82;104.50
75088;HTU21D;63664;44.868;40.600;2023-05-29T10:49:17;21.92;104.35
75088;HTU21D;63664;44.868;40.600;2023-05-29T10:51:47;22.06;104.21
75088;HTU21D;63664;44.868;40.600;2023-05-29T10:54:25;22.18;104.05
75088;HTU21D;63664;44.868;40.600;2023-05-29T10:56:58;22.23;103.78
75088;HTU21D;63664;44.868;40.600;2023-05-29T10:59:36;22.25;103.86
75088;HTU21D;63664;44.868;40.600;2023-05-29T11:02:09;22.35;103.63
75088;HTU21D;63664;44.868;40.600;2023-05-29T11:04:38;22.41;103.47
75088;HTU21D;63664;44.868;40.600;2023-05-29T11:07:32;22.49;103.28
75088;HTU21D;63664;44.868;40.600;2023-05-29T11:10:12;22.51;103.18
75088;HTU21D;63664;44.868;40.600;2023-05-29T11:12:58;22.53;103.15
75088;HTU21D;63664;44.868;40.600;2023-05-29T11:15:26;22.62;102.96
75088;HTU21D;63664;44.868;40.600;2023-05-29T11:17:55;22.73;102.73
75088;HTU21D;63664;44.868;40.600;2023-05-29T11:20:57;22.96;102.15
75088;HTU21D;63664;44.868;40.600;2023-05-29T11:23:31;23.09;101.63
75088;HTU21D;63664;44.868;40.600;2023-05-29T11:26:03;23.12;101.62
75088;HTU21D;63664;44.868;40.600;2023-05-29T11:28:36;23.09;101.57
75088;HTU21D;63664;44.868;40.600;2023-05-29T11:31:09;23.09;101.52
75088;HTU21D;63664;44.868;40.600;2023-05-29T11:33:47;23.12;101.51
75088;HTU21D;63664;44.868;40.600;2023-05-29T11:36:18;23.11;101.37
75088;HTU21D;63664;44.868;40.600;2023-05-29T11:38:51;23.12;101.38
75088;HTU21D;63664;44.868;40.600;2023-05-29T11:41:23;23.13;101.15
75088;HTU21D;63664;44.868;40.600;2023-05-29T11:44:02;23.16;101.03
75088;HTU21D;63664;44.868;40.600;2023-05-29T11:46:31;23.23;100.46
75088;HTU21D;63664;44.868;40.600;2023-05-29T11:49:01;23.29;100.25
75088;HTU21D;63664;44.868;40.600;2023-05-29T11:51:30;23.37;99.69
75088;HTU21D;63664;44.868;40.600;2023-05-29T11:53:56;23.47;99.48
75088;HTU21D;63664;44.868;40.600;2023-05-29T11:56:30;23.56;99.20
75088;HTU21D;63664;44.868;40.600;2023-05-29T11:58:59;23.62;98.66
75088;HTU21D;63664;44.868;40.600;2023-05-29T12:01:26;23.71;98.52
75088;HTU21D;63664;44.868;40.600;2023-05-29T12:03:54;23.80;98.16
75088;HTU21D;63664;44.868;40.600;2023-05-29T12:06:33;23.82;97.86
75088;HTU21D;63664;44.868;40.600;2023-05-29T12:09:07;23.85;97.62
75088;HTU21D;63664;44.868;40.600;2023-05-29T12:11:34;23.89;97.33
75088;HTU21D;63664;44.868;40.600;2023-05-29T12:14:06;23.97;97.17
75088;HTU21D;63664;44.868;40.600;2023-05-29T12:16:37;24.05;97.05
75088;HTU21D;63664;44.868;40.600;2023-05-29T12:19:06;24.15;96.72
75088;HTU21D;63664;44.868;40.600;2023-05-29T12:21:32;24.17;96.41
75088;HTU21D;63664;44.868;40.600;2023-05-29T12:23:59;24.21;96.03
75088;HTU21D;63664;44.868;40.600;2023-05-29T12:26:29;24.20;95.92
75088;HTU21D;63664;44.868;40.600;2023-05-29T12:29:01;24.18;95.97
75088;HTU21D;63664;44.868;40.600;2023-05-29T12:31:28;24.18;95.94
75088;HTU21D;63664;44.868;40.600;2023-05-29T12:34:07;24.25;95.33
75088;HTU21D;63664;44.868;40.600;2023-05-29T12:36:44;24.36;94.82
75088;HTU21D;63664;44.868;40.600;2023-05-29T12:39:11;24.42;94.75
75088;HTU21D;63664;44.868;40.600;2023-05-29T12:41:40;24.48;94.64
75088;HTU21D;63664;44.868;40.600;2023-05-29T12:44:10;24.49;94.51
75088;HTU21D;63664;44.868;40.600;2023-05-29T12:46:45;24.51;94.70
75088;HTU21D;63664;44.868;40.600;2023-05-29T12:49:19;24.53;94.52
75088;HTU21D;63664;44.868;40.600;2023-05-29T12:51:51;24.45;94.85
75088;HTU21D;63664;44.868;40.600;2023-05-29T12:54:18;24.54;94.81
75088;HTU21D;63664;44.868;40.600;2023-05-29T12:56:45;24.77;94.09
75088;HTU21D;63664;44.868;40.600;2023-05-29T12:59:12;24.92;93.37
75088;HTU21D;63664;44.868;40.600;2023-05-29T13:01:39;24.93;93.34
75088;HTU21D;63664;44.868;40.600;2023-05-29T13:04:09;24.91;93.52
75088;HTU21D;63664;44.868;40.600;2023-05-29T13:06:37;24.92;93.39
75088;HTU21D;63664;44.868;40.600;2023-05-29T13:09:04;24.87;93.26
75088;HTU21D;63664;44.868;40.600;2023-05-29T13:11:34;24.76;93.62
75088;HTU21D;63664;44.868;40.600;2023-05-29T13:14:01;24.72;93.60
75088;HTU21D;63664;44.868;40.600;2023-05-29T13:16:27;24.63;93.95
75088;HTU21D;63664;44.868;40.600;2023-05-29T13:18:55;24.62;93.90
75088;HTU21D;63664;44.868;40.600;2023-05-29T13:21:27;24.65;93.78
75088;HTU21D;63664;44.868;40.600;2023-05-29T13:23:58;24.65;93.67
75088;HTU21D;63664;44.868;40.600;2023-05-29T13:26:24;24.64;93.44
75088;HTU21D;63664;44.868;40.600;2023-05-29T13:28:51;24.61;93.35
75088;HTU21D;63664;44.868;40.600;2023-05-29T13:31:20;24.62;93.26
75088;HTU21D;63664;44.868;40.600;2023-05-29T13:33:50;24.64;93.17
75088;HTU21D;63664;44.868;40.600;2023-05-29T13:36:19;24.66;92.98
75088;HTU21D;63664;44.868;40.600;2023-05-29T13:38:50;24.69;92.70
75088;HTU21D;63664;44.868;40.600;2023-05-29T13:41:19;24.68;92.85
75088;HTU21D;63664;44.868;40.600;2023-05-29T13:43:51;24.69;92.60
75088;HTU21D;63664;44.868;40.600;2023-05-29T13:46:21;24.65;92.60
75088;HTU21D;63664;44.868;40.600;2023-05-29T13:48:50;24.62;92.69
75088;HTU21D;63664;44.868;40.600;2023-05-29T13:51:17;24.60;92.63
75088;HTU21D;63664;44.868;40.600;2023-05-29T13:53:43;24.55;92.75
75088;HTU21D;63664;44.868;40.600;2023-05-29T13:56:13;24.56;92.54
75088;HTU21D;63664;44.868;40.600;2023-05-29T13:58:41;24.56;92.56
75088;HTU21D;63664;44.868;40.600;2023-05-29T14:01:10;24.60;92.46
75088;HTU21D;63664;44.868;40.600;2023-05-29T15:55:19;23.06;96.44
75088;HTU21D;63664;44.868;40.600;2023-05-29T15:57:45;23.00;96.55
75088;HTU21D;63664;44.868;40.600;2023-05-29T16:00:18;22.97;96.70
75088;HTU21D;63664;44.868;40.600;2023-05-29T16:02:44;22.94;96.81
75088;HTU21D;63664;44.868;40.600;2023-05-29T16:05:11;22.92;96.85
75088;HTU21D;63664;44.868;40.600;2023-05-29T16:07:40;22.87;96.97
75088;HTU21D;63664;44.868;40.600;2023-05-29T16:10:15;22.84;97.06
75088;HTU21D;63664;44.868;40.600;2023-05-29T16:12:43;22.78;97.26
75088;HTU21D;63664;44.868;40.600;2023-05-29T16:15:11;22.75;97.32
75088;HTU21D;63664;44.868;40.600;2023-05-29T16:17:41;22.71;97.46
75088;HTU21D;63664;44.868;40.600;2023-05-29T16:20:08;22.66;97.64
75088;HTU21D;63664;44.868;40.600;2023-05-29T16:22:40;22.64;97.47
75088;HTU21D;63664;44.868;40.600;2023-05-29T16:25:09;22.56;97.63
75088;HTU21D;63664;44.868;40.600;2023-05-29T16:27:38;22.50;97.97
75088;HTU21D;63664;44.868;40.600;2023-05-29T16:30:07;22.46;97.82
75088;HTU21D;63664;44.868;40.600;2023-05-29T16:32:37;22.37;98.09
75088;HTU21D;63664;44.868;40.600;2023-05-29T16:35:04;22.29;98.43
75088;HTU21D;63664;44.868;40.600;2023-05-29T16:37:35;22.23;98.71
75088;HTU21D;63664;44.868;40.600;2023-05-29T16:40:01;22.16;99.03
75088;HTU21D;63664;44.868;40.600;2023-05-29T16:42:33;22.09;99.22
75088;HTU21D;63664;44.868;40.600;2023-05-29T16:45:05;22.04;99.34
75088;HTU21D;63664;44.868;40.600;2023-05-29T16:47:34;21.98;99.43
75088;HTU21D;63664;44.868;40.600;2023-05-29T16:50:01;21.94;99.53
75088;HTU21D;63664;44.868;40.600;2023-05-29T16:52:30;21.89;99.66
75088;HTU21D;63664;44.868;40.600;2023-05-29T16:55:00;21.80;99.84
75088;HTU21D;63664;44.868;40.600;2023-05-29T16:57:33;21.74;100.00
75088;HTU21D;63664;44.868;40.600;2023-05-29T17:00:02;21.66;100.13
75088;HTU21D;63664;44.868;40.600;2023-05-29T17:02:34;21.62;100.28
75088;HTU21D;63664;44.868;40.600;2023-05-29T17:05:00;21.54;100.39
75088;HTU21D;63664;44.868;40.600;2023-05-29T17:07:29;21.49;100.50
75088;HTU21D;63664;44.868;40.600;2023-05-29T17:09:58;21.45;100.54
75088;HTU21D;63664;44.868;40.600;2023-05-29T17:12:24;21.39;100.62
75088;HTU21D;63664;44.868;40.600;2023-05-29T17:14:50;21.32;100.78
75088;HTU21D;63664;44.868;40.600;2023-05-29T17:17:17;21.24;100.98
75088;HTU21D;63664;44.868;40.600;2023-05-29T17:19:43;21.18;101.16
75088;HTU21D;63664;44.868;40.600;2023-05-29T17:22:12;21.13;101.26
75088;HTU21D;63664;44.868;40.600;2023-05-29T17:24:38;21.06;101.35
75088;HTU21D;63664;44.868;40.600;2023-05-29T17:27:10;21.01;101.39
75088;HTU21D;63664;44.868;40.600;2023-05-29T17:29:36;20.94;101.43
75088;HTU21D;63664;44.868;40.600;2023-05-29T17:32:02;20.90;101.54
75088;HTU21D;63664;44.868;40.600;2023-05-29T17:34:29;20.85;101.63
75088;HTU21D;63664;44.868;40.600;2023-05-29T17:36:57;20.78;101.78
75088;HTU21D;63664;44.868;40.600;2023-05-29T17:39:29;20.72;101.95
75088;HTU21D;63664;44.868;40.600;2023-05-29T17:41:58;20.65;102.01
75088;HTU21D;63664;44.868;40.600;2023-05-29T17:44:26;20.59;102.08
75088;HTU21D;63664;44.868;40.600;2023-05-29T17:46:56;20.51;102.22
75088;HTU21D;63664;44.868;40.600;2023-05-29T17:49:22;20.46;102.25
75088;HTU21D;63664;44.868;40.600;2023-05-29T17:51:51;20.41;102.41
75088;HTU21D;63664;44.868;40.600;2023-05-29T17:54:18;20.33;102.61
75088;HTU21D;63664;44.868;40.600;2023-05-29T17:56:47;20.29;102.69
75088;HTU21D;63664;44.868;40.600;2023-05-29T17:59:13;20.24;102.79
75088;HTU21D;63664;44.868;40.600;2023-05-29T18:01:40;20.18;102.83
75088;HTU21D;63664;44.868;40.600;2023-05-29T18:04:09;20.13;102.86
75088;HTU21D;63664;44.868;40.600;2023-05-29T18:06:35;20.09;102.89
75088;HTU21D;63664;44.868;40.600;2023-05-29T18:09:02;20.09;102.94
75088;HTU21D;63664;44.868;40.600;2023-05-29T18:11:29;20.03;102.92
75088;HTU21D;63664;44.868;40.600;2023-05-29T18:13:57;20.01;102.98
75088;HTU21D;63664;44.868;40.600;2023-05-29T18:16:24;19.98;102.99
75088;HTU21D;63664;44.868;40.600;2023-05-29T18:18:50;19.90;103.08
75088;HTU21D;63664;44.868;40.600;2023-05-29T18:21:23;19.87;103.21
75088;HTU21D;63664;44.868;40.600;2023-05-29T18:23:53;19.83;103.28
75088;HTU21D;63664;44.868;40.600;2023-05-29T18:26:20;19.79;103.38
75088;HTU21D;63664;44.868;40.600;2023-05-29T18:28:47;19.74;103.45
75088;HTU21D;63664;44.868;40.600;2023-05-29T18:31:14;19.70;103.53
75088;HTU21D;63664;44.868;40.600;2023-05-29T18:33:47;19.66;103.57
75088;HTU21D;63664;44.868;40.600;2023-05-29T18:36:15;19.62;103.57
75088;HTU21D;63664;44.868;40.600;2023-05-29T18:38:45;19.57;103.57
75088;HTU21D;63664;44.868;40.600;2023-05-29T18:41:14;19.52;103.64
75088;HTU21D;63664;44.868;40.600;2023-05-29T18:43:40;19.46;103.79
75088;HTU21D;63664;44.868;40.600;2023-05-29T18:46:06;19.41;103.86
75088;HTU21D;63664;44.868;40.600;2023-05-29T18:48:39;19.37;103.98
75088;HTU21D;63664;44.868;40.600;2023-05-29T18:51:06;19.33;104.02
75088;HTU21D;63664;44.868;40.600;2023-05-29T18:53:39;19.30;104.08
75088;HTU21D;63664;44.868;40.600;2023-05-29T18:56:10;19.27;104.09
75088;HTU21D;63664;44.868;40.600;2023-05-29T18:58:36;19.23;104.04
75088;HTU21D;63664;44.868;40.600;2023-05-29T19:01:02;19.20;104.08
75088;HTU21D;63664;44.868;40.600;2023-05-29T19:03:33;19.15;104.15
75088;HTU21D;63664;44.868;40.600;2023-05-29T19:06:02;19.12;104.22
75088;HTU21D;63664;44.868;40.600;2023-05-29T19:08:34;19.10;104.24
75088;HTU21D;63664;44.868;40.600;2023-05-29T19:11:07;19.06;104.29
75088;HTU21D;63664;44.868;40.600;2023-05-29T19:13:38;19.03;104.20
75088;HTU21D;63664;44.868;40.600;2023-05-29T19:16:04;18.97;104.20
75088;HTU21D;63664;44.868;40.600;2023-05-29T19:18:31;18.94;104.31
75088;HTU21D;63664;44.868;40.600;2023-05-29T19:20:57;18.91;104.43
75088;HTU21D;63664;44.868;40.600;2023-05-29T19:23:23;18.84;104.47
75088;HTU21D;63664;44.868;40.600;2023-05-29T19:25:50;18.80;104.66
75088;HTU21D;63664;44.868;40.600;2023-05-29T19:28:21;18.79;104.67
75088;HTU21D;63664;44.868;40.600;2023-05-29T19:30:47;18.77;104.68
75088;HTU21D;63664;44.868;40.600;2023-05-29T19:33:14;18.73;104.76
75088;HTU21D;63664;44.868;40.600;2023-05-29T19:35:40;18.70;104.85